createdAt,value
2023-04-21T00:00:10.505Z,82.25
2023-04-21T00:02:40.271Z,82.18
2023-04-21T00:05:12.954Z,82.71
2023-04-21T00:07:41.069Z,83.33
2023-04-21T00:10:09.276Z,82.34
2023-04-21T00:12:36.260Z,82.73
2023-04-21T00:15:04.969Z,82.85
2023-04-21T00:17:31.837Z,83.11
2023-04-21T00:19:58.970Z,83.31
2023-04-21T00:22:26.288Z,83.41
2023-04-21T00:24:53.158Z,83.78
2023-04-21T00:27:20.219Z,82.92
2023-04-21T00:29:50.323Z,83.23
2023-04-21T00:32:17.203Z,84.11
2023-04-21T00:34:44.046Z,83.37
2023-04-21T00:37:11.072Z,83.53
2023-04-21T00:39:38.083Z,83.51
2023-04-21T00:42:05.167Z,83.04
2023-04-21T00:44:32.211Z,83.83
2023-04-21T00:46:59.129Z,82.94
2023-04-21T00:49:26.374Z,82.71
2023-04-21T00:51:54.676Z,82.93
2023-04-21T00:54:24.481Z,83.56
2023-04-21T00:56:51.750Z,84.12
2023-04-21T00:59:19.029Z,83.58
2023-04-21T01:01:46.703Z,83.59
2023-04-21T01:04:13.978Z,83.75
2023-04-21T01:06:42.112Z,83.88
2023-04-21T01:09:09.187Z,83.82
2023-04-21T01:11:36.272Z,83.88
2023-04-21T01:14:04.085Z,83.81
2023-04-21T01:16:33.091Z,83.81
2023-04-21T01:19:01.753Z,84.02
2023-04-21T01:21:29.342Z,84.22
2023-04-21T01:23:56.359Z,84.03
2023-04-21T01:26:23.821Z,84.14
2023-04-21T01:28:51.031Z,83.91
2023-04-21T01:31:18.690Z,84.32
2023-04-21T01:33:46.857Z,84.29
2023-04-21T01:36:13.935Z,84.60
2023-04-21T01:38:42.314Z,84.43
2023-04-21T01:41:10.084Z,83.57
2023-04-21T01:43:37.684Z,83.90
2023-04-21T01:46:08.006Z,84.73
2023-04-21T01:48:37.475Z,84.33
2023-04-21T01:51:04.628Z,84.06
2023-04-21T01:53:31.923Z,84.27
2023-04-21T01:55:58.812Z,83.92
2023-04-21T01:58:26.127Z,84.42
2023-04-21T02:00:53.246Z,84.78
2023-04-21T02:03:20.474Z,84.96
2023-04-21T02:05:47.724Z,84.74
2023-04-21T02:08:14.752Z,84.84
2023-04-21T02:10:41.753Z,84.18
2023-04-21T02:13:08.735Z,83.58
2023-04-21T02:15:37.808Z,84.75
2023-04-21T02:18:06.593Z,84.43
2023-04-21T02:20:33.629Z,85.07
2023-04-21T02:23:00.490Z,84.26
2023-04-21T02:25:28.382Z,84.34
2023-04-21T02:27:55.859Z,84.95
2023-04-21T02:30:22.839Z,84.24
2023-04-21T02:32:49.784Z,84.35
2023-04-21T02:35:16.784Z,84.62
2023-04-21T02:37:43.790Z,84.11
2023-04-21T02:40:11.377Z,84.45
2023-04-21T02:42:39.676Z,84.15
2023-04-21T02:45:07.182Z,84.47
2023-04-21T02:47:34.358Z,84.33
2023-04-21T02:50:01.498Z,84.00
2023-04-21T02:52:28.488Z,84.34
2023-04-21T02:54:55.288Z,83.82
2023-04-21T02:57:22.350Z,83.59
2023-04-21T02:59:49.370Z,83.71
2023-04-21T03:02:17.445Z,83.71
2023-04-21T03:04:44.662Z,84.28
2023-04-21T03:07:14.454Z,84.08
2023-04-21T03:09:41.676Z,84.09
2023-04-21T03:12:08.630Z,83.28
2023-04-21T03:14:35.724Z,83.23
2023-04-21T03:17:02.945Z,83.36
2023-04-21T03:19:31.355Z,83.47
2023-04-21T03:21:58.547Z,83.68
2023-04-21T03:24:25.478Z,83.62
2023-04-21T03:26:53.574Z,84.19
2023-04-21T03:29:20.822Z,84.05
2023-04-21T03:31:48.300Z,84.08
2023-04-21T03:34:15.623Z,83.25
2023-04-21T03:36:42.772Z,84.06
2023-04-21T03:39:19.875Z,83.71
2023-04-21T03:41:47.818Z,83.38
2023-04-21T03:44:14.780Z,83.85
2023-04-21T03:46:43.167Z,83.11
2023-04-21T03:49:10.581Z,83.48
2023-04-21T03:51:37.632Z,83.30
2023-04-21T03:54:04.559Z,83.29
2023-04-21T03:56:33.639Z,83.90
2023-04-21T03:59:01.087Z,84.19
2023-04-21T04:01:27.937Z,83.37
2023-04-21T04:03:54.941Z,83.01
2023-04-21T04:06:23.073Z,83.48
2023-04-21T04:08:50.174Z,82.90
2023-04-21T04:11:17.020Z,82.67
2023-04-21T04:13:44.137Z,83.35
2023-04-21T04:16:11.305Z,82.86
2023-04-21T04:18:39.649Z,82.98
2023-04-21T04:21:10.324Z,83.31
2023-04-21T04:23:37.197Z,82.72
2023-04-21T04:26:06.680Z,82.48
2023-04-21T04:28:33.918Z,82.56
2023-04-21T04:31:01.068Z,82.71
2023-04-21T04:33:28.263Z,81.93
2023-04-21T04:35:55.170Z,81.60
2023-04-21T04:38:23.350Z,81.31
2023-04-21T04:40:59.200Z,81.20
2023-04-21T04:43:26.183Z,81.60
2023-04-21T04:45:53.530Z,81.13
2023-04-21T04:48:20.435Z,81.20
2023-04-21T04:50:47.668Z,80.52
2023-04-21T04:53:14.491Z,80.14
2023-04-21T04:55:41.698Z,77.94
2023-04-21T04:58:08.790Z,74.82
2023-04-21T05:00:37.192Z,73.19
2023-04-21T05:03:04.269Z,71.46
2023-04-21T05:05:31.427Z,70.30
2023-04-21T05:07:59.126Z,68.47
2023-04-21T05:10:26.226Z,67.52
2023-04-21T05:12:53.438Z,65.34
2023-04-21T05:15:20.427Z,64.89
2023-04-21T05:17:50.042Z,63.94
2023-04-21T05:20:18.407Z,62.30
2023-04-21T05:22:45.481Z,62.40
2023-04-21T05:25:15.796Z,62.45
2023-04-21T05:27:47.336Z,62.05
2023-04-21T05:30:14.301Z,60.63
2023-04-21T05:32:41.355Z,58.87
2023-04-21T05:35:08.679Z,59.45
2023-04-21T05:37:35.840Z,58.75
2023-04-21T05:40:02.684Z,60.21
2023-04-21T05:42:29.737Z,59.90
2023-04-21T05:44:56.788Z,57.74
2023-04-21T05:47:26.688Z,57.09
2023-04-21T05:49:54.034Z,55.57
2023-04-21T05:52:24.161Z,52.73
2023-04-21T05:54:51.190Z,53.39
2023-04-21T05:57:18.370Z,53.61
2023-04-21T05:59:45.339Z,50.69
2023-04-21T06:02:15.687Z,49.59
2023-04-21T06:04:43.011Z,47.45
2023-04-21T06:07:13.652Z,45.28
2023-04-21T06:09:41.570Z,47.81
2023-04-21T06:12:08.942Z,44.85
2023-04-21T06:14:35.766Z,45.36
2023-04-21T06:17:02.550Z,46.10
2023-04-21T06:19:29.308Z,46.63
2023-04-21T06:21:57.455Z,46.81
2023-04-21T06:24:27.140Z,45.54
2023-04-21T06:26:54.221Z,46.03
2023-04-21T06:29:21.463Z,44.05
2023-04-21T06:31:48.505Z,45.17
2023-04-21T06:34:15.883Z,43.45
2023-04-21T06:36:43.318Z,42.28
2023-04-21T06:39:10.249Z,40.35
2023-04-21T06:41:37.081Z,39.79
2023-04-21T06:44:04.305Z,42.13
2023-04-21T06:46:32.753Z,44.24
2023-04-21T06:49:00.166Z,46.07
2023-04-21T06:51:29.842Z,44.97
2023-04-21T06:53:57.065Z,43.01
2023-04-21T06:56:24.063Z,43.23
2023-04-21T06:58:51.043Z,40.74
2023-04-21T07:01:18.103Z,42.38
2023-04-21T07:03:45.401Z,44.61
2023-04-21T07:06:16.028Z,44.85
2023-04-21T07:08:42.874Z,46.37
2023-04-21T07:11:10.030Z,46.08
2023-04-21T07:13:36.971Z,44.26
2023-04-21T07:16:03.966Z,46.09
2023-04-21T07:18:30.984Z,44.67
2023-04-21T07:20:57.924Z,44.63
2023-04-21T07:23:26.967Z,42.85
2023-04-21T07:25:53.764Z,40.33
2023-04-21T07:28:23.461Z,37.23
2023-04-21T07:30:50.342Z,37.09
2023-04-21T07:33:17.310Z,37.70
2023-04-21T07:35:44.341Z,37.53
2023-04-21T07:38:11.444Z,38.42
2023-04-21T07:40:38.508Z,38.83
2023-04-21T07:43:05.464Z,39.46
2023-04-21T07:45:32.466Z,35.72
2023-04-21T07:48:00.657Z,36.03
2023-04-21T07:50:27.975Z,41.17
2023-04-21T07:52:56.576Z,39.70
2023-04-21T07:55:23.708Z,38.47
2023-04-21T07:57:50.736Z,39.94
2023-04-21T08:00:17.927Z,36.38
2023-04-21T08:02:45.036Z,36.22
2023-04-21T08:05:12.236Z,37.34
2023-04-21T08:07:39.837Z,37.15
2023-04-21T08:10:08.056Z,36.89
2023-04-21T08:12:35.247Z,37.53
2023-04-21T08:15:06.071Z,37.32
2023-04-21T08:17:33.149Z,35.55
2023-04-21T08:20:00.695Z,33.66
2023-04-21T08:22:29.948Z,32.92
2023-04-21T08:24:57.233Z,33.07
2023-04-21T08:27:24.843Z,34.20
2023-04-21T08:29:51.792Z,32.46
2023-04-21T08:32:23.751Z,32.52
2023-04-21T08:34:52.294Z,31.05
2023-04-21T08:37:20.201Z,26.96
2023-04-21T08:39:48.707Z,25.85
2023-04-21T08:42:20.530Z,23.04
2023-04-21T08:44:48.316Z,26.54
2023-04-21T08:47:16.144Z,25.86
2023-04-21T08:49:45.477Z,23.71
2023-04-21T08:52:17.866Z,24.16
2023-04-21T08:54:44.878Z,23.05
2023-04-21T08:57:15.882Z,22.03
2023-04-21T08:59:44.027Z,20.17
2023-04-21T09:02:16.620Z,22.14
2023-04-21T09:04:46.328Z,21.67
2023-04-21T09:07:31.791Z,21.67
2023-04-21T09:10:00.529Z,20.93
2023-04-21T09:12:28.139Z,19.31
2023-04-21T09:14:55.384Z,18.27
2023-04-21T09:17:29.825Z,19.90
2023-04-21T09:19:59.814Z,21.45
2023-04-21T09:22:29.562Z,22.96
2023-04-21T09:25:02.299Z,20.31
2023-04-21T09:27:29.254Z,20.27
2023-04-21T09:29:56.362Z,20.86
2023-04-21T09:32:23.250Z,20.82
2023-04-21T09:34:50.083Z,19.85
2023-04-21T09:37:18.958Z,20.83
2023-04-21T09:40:03.449Z,20.52
2023-04-21T09:42:36.954Z,18.77
2023-04-21T09:47:43.435Z,19.89
2023-04-21T09:50:13.452Z,18.61
2023-04-21T09:52:42.866Z,18.81
2023-04-21T09:55:13.876Z,19.70
2023-04-21T09:57:43.278Z,20.71
2023-04-21T10:00:13.791Z,19.51
2023-04-21T10:02:54.236Z,19.54
2023-04-21T10:05:21.391Z,18.54
2023-04-21T10:07:49.328Z,18.83
2023-04-21T10:10:26.596Z,18.38
2023-04-21T10:12:53.924Z,17.95
2023-04-21T10:15:41.859Z,18.32
2023-04-21T10:18:19.869Z,21.52
2023-04-21T10:21:08.055Z,19.36
2023-04-21T10:23:49.030Z,18.96
2023-04-21T10:26:35.085Z,18.74
2023-04-21T10:29:07.043Z,18.20
2023-04-21T10:31:36.834Z,19.74
2023-04-21T10:34:06.749Z,17.42
2023-04-21T10:36:43.794Z,17.28
2023-04-21T10:39:15.940Z,18.03
2023-04-21T10:41:44.451Z,18.26
2023-04-21T10:44:14.231Z,20.58
2023-04-21T10:46:46.884Z,20.55
2023-04-21T10:49:30.816Z,20.63
2023-04-21T10:52:03.639Z,20.70
2023-04-21T10:54:37.036Z,21.94
2023-04-21T10:57:08.358Z,20.63
2023-04-21T10:59:36.635Z,23.17
2023-04-21T11:02:06.380Z,19.25
2023-04-21T11:04:33.865Z,20.32
2023-04-21T11:07:15.040Z,19.24
2023-04-21T11:09:43.607Z,19.91
2023-04-21T11:12:13.534Z,19.95
2023-04-21T11:14:45.014Z,18.08
2023-04-21T11:17:14.799Z,19.61
2023-04-21T11:19:42.204Z,19.90
2023-04-21T11:22:09.347Z,20.26
2023-04-21T11:24:36.762Z,19.73
2023-04-21T11:27:04.242Z,19.03
2023-04-21T11:29:31.097Z,20.53
2023-04-21T11:31:59.508Z,19.99
2023-04-21T11:34:27.082Z,20.05
2023-04-21T11:36:54.227Z,21.18
2023-04-21T11:39:22.160Z,19.81
2023-04-21T11:41:51.361Z,20.89
2023-04-21T11:44:37.324Z,19.75
2023-04-21T11:47:21.515Z,21.58
2023-04-21T11:50:02.176Z,21.96
2023-04-21T11:52:34.081Z,21.56
2023-04-21T11:55:11.453Z,21.35
2023-04-21T11:57:40.999Z,22.45
2023-04-21T12:00:12.230Z,22.13
2023-04-21T12:02:39.485Z,22.99
2023-04-21T12:05:09.263Z,24.18
2023-04-21T12:07:42.840Z,26.89
2023-04-21T12:10:12.301Z,27.84
2023-04-21T12:12:41.540Z,27.24
2023-04-21T12:15:10.883Z,30.55
2023-04-21T12:17:45.806Z,33.06
2023-04-21T12:20:13.766Z,32.56
2023-04-21T12:22:40.780Z,36.27
2023-04-21T12:25:09.160Z,36.92
2023-04-21T12:27:36.396Z,37.09
2023-04-21T12:30:04.371Z,38.57
2023-04-21T12:32:31.514Z,36.85
2023-04-21T12:34:58.497Z,38.15
2023-04-21T12:37:26.267Z,39.56
2023-04-21T12:39:53.343Z,39.02
2023-04-21T12:42:20.186Z,39.18
2023-04-21T12:44:47.135Z,39.40
2023-04-21T12:47:15.240Z,39.23
2023-04-21T12:49:42.104Z,39.54
2023-04-21T12:52:09.093Z,39.58
2023-04-21T12:54:36.314Z,40.58
2023-04-21T12:57:03.235Z,40.51
2023-04-21T12:59:30.268Z,39.70
2023-04-21T13:02:00.371Z,37.71
2023-04-21T13:04:27.622Z,38.22
2023-04-21T13:06:54.703Z,38.00
2023-04-21T13:09:21.554Z,39.54
2023-04-21T13:11:48.550Z,38.74
2023-04-21T13:14:16.126Z,39.09
2023-04-21T13:16:43.747Z,38.47
2023-04-21T13:19:11.230Z,39.00
2023-04-21T13:21:38.208Z,38.66
2023-04-21T13:24:09.896Z,38.08
2023-04-21T13:26:36.840Z,36.83
2023-04-21T13:29:04.586Z,36.50
2023-04-21T13:31:32.753Z,37.91
2023-04-21T13:34:01.413Z,39.19
2023-04-21T13:36:28.517Z,38.49
2023-04-21T13:38:56.584Z,38.00
2023-04-21T13:41:23.392Z,37.90
2023-04-21T13:43:50.535Z,39.40
2023-04-21T13:46:17.484Z,37.89
2023-04-21T13:48:48.315Z,39.06
2023-04-21T13:51:15.161Z,40.12
2023-04-21T13:53:42.142Z,39.68
2023-04-21T13:56:10.285Z,39.64
2023-04-21T13:58:37.643Z,37.92
2023-04-21T14:01:04.788Z,37.15
2023-04-21T14:03:31.865Z,37.75
2023-04-21T14:05:59.017Z,37.06
2023-04-21T14:08:26.174Z,37.03
2023-04-21T14:10:53.266Z,38.05
2023-04-21T14:13:33.882Z,38.24
2023-04-21T14:16:05.049Z,38.40
2023-04-21T14:18:33.741Z,38.08
2023-04-21T14:21:01.046Z,38.63
2023-04-21T14:23:28.011Z,40.07
2023-04-21T14:25:55.440Z,40.11
2023-04-21T14:28:22.750Z,40.43
2023-04-21T14:30:49.636Z,38.51
2023-04-21T14:33:16.592Z,37.90
2023-04-21T14:35:43.526Z,38.41
2023-04-21T14:38:10.463Z,39.33
2023-04-21T14:40:37.676Z,40.26
2023-04-21T14:43:04.588Z,40.27
2023-04-21T14:45:31.785Z,40.28
2023-04-21T14:47:58.852Z,41.06
2023-04-21T14:50:25.908Z,39.88
2023-04-21T14:52:52.895Z,39.48
2023-04-21T14:55:19.850Z,39.34
2023-04-21T14:57:47.261Z,38.63
2023-04-21T15:00:14.696Z,39.10
2023-04-21T15:02:41.833Z,39.79
2023-04-21T15:05:09.424Z,40.62
2023-04-21T15:07:36.593Z,40.33
2023-04-21T15:10:03.664Z,40.37
2023-04-21T15:12:30.722Z,39.76
2023-04-21T15:14:57.865Z,39.20
2023-04-21T15:17:25.051Z,39.19
2023-04-21T15:19:51.941Z,39.38
2023-04-21T15:22:22.320Z,40.01
2023-04-21T15:24:50.269Z,40.66
2023-04-21T15:27:18.073Z,40.86
2023-04-21T15:29:47.845Z,40.27
2023-04-21T15:32:15.784Z,39.03
2023-04-21T15:34:42.877Z,39.89
2023-04-21T15:37:09.666Z,40.62
2023-04-21T15:39:36.814Z,41.84
2023-04-21T15:42:04.722Z,41.08
2023-04-21T15:44:31.796Z,41.93
2023-04-21T15:46:58.784Z,41.34
2023-04-21T15:49:26.329Z,41.44
2023-04-21T15:51:56.639Z,42.80
2023-04-21T15:54:24.322Z,42.17
2023-04-21T15:56:51.608Z,41.59
2023-04-21T15:59:18.536Z,42.97
2023-04-21T16:01:54.723Z,41.88
2023-04-21T16:04:25.136Z,43.42
2023-04-21T16:06:52.229Z,41.76
2023-04-21T16:09:21.440Z,41.93
2023-04-21T16:11:54.817Z,42.50
2023-04-21T16:14:24.477Z,41.52
2023-04-21T16:16:51.461Z,41.98
2023-04-21T16:19:18.762Z,42.58
2023-04-21T16:21:45.868Z,42.70
2023-04-21T16:24:12.821Z,42.77
2023-04-21T16:26:40.017Z,42.83
2023-04-21T16:29:07.086Z,43.56
2023-04-21T16:31:34.543Z,43.54
2023-04-21T16:34:01.677Z,44.12
2023-04-21T16:36:29.073Z,43.34
2023-04-21T16:38:57.911Z,43.75
2023-04-21T16:41:25.047Z,43.68
2023-04-21T16:43:55.251Z,44.39
2023-04-21T16:46:22.907Z,43.58
2023-04-21T16:48:49.858Z,45.19
2023-04-21T16:51:18.050Z,44.74
2023-04-21T16:53:45.267Z,45.65
2023-04-21T16:56:12.442Z,45.14
2023-04-21T16:58:39.686Z,45.38
2023-04-21T17:01:07.770Z,45.05
2023-04-21T17:03:35.067Z,45.41
2023-04-21T17:06:04.835Z,45.20
2023-04-21T17:08:33.934Z,45.48
2023-04-21T17:11:00.850Z,45.64
2023-04-21T17:13:27.692Z,46.09
2023-04-21T17:15:54.721Z,45.79
2023-04-21T17:18:24.241Z,46.87
2023-04-21T17:20:51.452Z,46.57
2023-04-21T17:23:18.298Z,46.54
2023-04-21T17:25:46.043Z,47.08
2023-04-21T17:28:15.477Z,47.07
2023-04-21T17:30:42.463Z,47.59
2023-04-21T17:35:52.120Z,47.72
2023-04-21T17:38:29.610Z,47.53
2023-04-21T17:40:56.817Z,48.55
2023-04-21T17:43:24.382Z,48.46
2023-04-21T17:45:52.697Z,48.83
2023-04-21T17:48:21.577Z,49.14
2023-04-21T17:50:48.551Z,48.22
2023-04-21T17:53:15.943Z,49.41
2023-04-21T17:55:43.259Z,49.59
2023-04-21T17:58:12.539Z,49.02
2023-04-21T18:00:39.928Z,48.53
2023-04-21T18:03:07.188Z,48.59
2023-04-21T18:05:34.547Z,48.07
2023-04-21T18:08:02.557Z,48.65
2023-04-21T18:10:32.442Z,49.34
2023-04-21T18:12:59.296Z,49.44
2023-04-21T18:15:26.192Z,49.24
2023-04-21T18:17:53.511Z,50.33
2023-04-21T18:20:20.821Z,49.42
2023-04-21T18:22:50.743Z,49.20
2023-04-21T18:25:30.634Z,50.75
2023-04-21T18:28:05.345Z,49.91
2023-04-21T18:30:32.395Z,50.98
2023-04-21T18:32:59.330Z,51.07
2023-04-21T18:35:26.394Z,50.71
2023-04-21T18:37:53.252Z,52.01
2023-04-21T18:40:20.906Z,51.74
2023-04-21T18:42:47.758Z,51.60
2023-04-21T18:45:14.953Z,51.72
2023-04-21T18:47:42.195Z,52.06
2023-04-21T18:50:09.661Z,52.45
2023-04-21T18:52:36.893Z,53.19
2023-04-21T18:55:04.356Z,53.14
2023-04-21T18:57:31.349Z,52.39
2023-04-21T19:00:00.388Z,52.90
2023-04-21T19:02:29.101Z,53.72
2023-04-21T19:04:58.657Z,54.02
2023-04-21T19:07:27.083Z,54.02
2023-04-21T19:09:54.042Z,54.00
2023-04-21T19:12:21.702Z,53.77
2023-04-21T19:14:52.504Z,54.02
2023-04-21T19:17:20.177Z,54.32
2023-04-21T19:19:47.019Z,53.90
2023-04-21T19:22:14.316Z,54.15
2023-04-21T19:24:41.285Z,54.36
2023-04-21T19:27:08.526Z,54.69
2023-04-21T19:29:36.830Z,54.29
2023-04-21T19:32:04.253Z,55.11
2023-04-21T19:34:32.971Z,55.02
2023-04-21T19:37:00.013Z,54.52
2023-04-21T19:39:27.674Z,55.31
2023-04-21T19:41:54.520Z,54.47
2023-04-21T19:44:24.133Z,55.33
2023-04-21T19:46:51.491Z,55.26
2023-04-21T19:49:18.586Z,55.05
2023-04-21T19:51:46.228Z,54.74
2023-04-21T19:54:13.118Z,55.17
2023-04-21T19:56:40.755Z,55.58
2023-04-21T19:59:08.157Z,54.57
2023-04-21T20:01:35.481Z,55.03
2023-04-21T20:04:03.738Z,55.75
2023-04-21T20:06:32.285Z,56.17
2023-04-21T20:08:59.305Z,55.74
2023-04-21T20:11:29.445Z,56.51
2023-04-21T20:13:56.380Z,56.38
2023-04-21T20:16:24.119Z,56.01
2023-04-21T20:18:51.040Z,56.31
2023-04-21T20:21:20.685Z,57.04
2023-04-21T20:23:47.698Z,56.47
2023-04-21T20:26:14.681Z,56.38
2023-04-21T20:28:41.498Z,56.47
2023-04-21T20:31:09.250Z,56.14
2023-04-21T20:33:36.842Z,56.92
2023-04-21T20:36:07.602Z,57.22
2023-04-21T20:38:35.177Z,57.39
2023-04-21T20:41:03.741Z,58.49
2023-04-21T20:43:34.500Z,58.48
2023-04-21T20:46:03.596Z,58.44
2023-04-21T20:48:30.777Z,59.04
2023-04-21T20:50:58.124Z,59.01
2023-04-21T20:53:25.151Z,59.14
2023-04-21T20:55:54.104Z,59.84
2023-04-21T20:58:21.238Z,59.50
2023-04-21T21:00:48.465Z,58.97
2023-04-21T21:03:15.574Z,59.20
2023-04-21T21:05:42.753Z,59.50
2023-04-21T21:08:09.811Z,60.18
2023-04-21T21:10:38.195Z,59.88
2023-04-21T21:13:05.470Z,60.19
2023-04-21T21:15:34.119Z,59.91
2023-04-21T21:18:01.298Z,60.23
2023-04-21T21:20:28.693Z,60.00
2023-04-21T21:22:55.367Z,59.48
2023-04-21T21:25:22.166Z,59.97
2023-04-21T21:27:48.998Z,59.87
2023-04-21T21:30:15.918Z,59.11
2023-04-21T21:32:43.175Z,59.44
2023-04-21T21:35:10.656Z,58.87
2023-04-21T21:37:38.294Z,59.28
2023-04-21T21:40:06.835Z,59.57
2023-04-21T21:42:33.888Z,58.92
2023-04-21T21:45:02.417Z,59.66
2023-04-21T21:47:29.645Z,58.95
2023-04-21T21:49:58.938Z,59.27
2023-04-21T21:52:26.642Z,58.83
2023-04-21T21:54:54.207Z,58.93
2023-04-21T21:57:22.090Z,58.30
2023-04-21T21:59:49.319Z,59.24
2023-04-21T22:02:16.783Z,59.12
2023-04-21T22:04:44.143Z,58.93
2023-04-21T22:07:11.461Z,59.26
2023-04-21T22:09:38.940Z,59.13
2023-04-21T22:12:07.492Z,58.43
2023-04-21T22:14:34.543Z,58.82
2023-04-21T22:17:01.521Z,58.94
2023-04-21T22:19:29.597Z,58.92
2023-04-21T22:21:56.560Z,59.62
2023-04-21T22:24:23.456Z,58.99
2023-04-21T22:26:50.385Z,58.72
2023-04-21T22:29:17.226Z,59.09
2023-04-21T22:31:44.181Z,59.08
2023-04-21T22:34:15.217Z,59.50
2023-04-21T22:36:42.137Z,59.21
2023-04-21T22:39:09.718Z,59.03
2023-04-21T22:41:37.322Z,58.76
2023-04-21T22:44:04.862Z,58.90
2023-04-21T22:46:33.963Z,59.20
2023-04-21T22:49:02.712Z,59.72
2023-04-21T22:51:33.417Z,60.29
2023-04-21T22:54:00.817Z,59.96
2023-04-21T22:56:28.827Z,59.41
2023-04-21T22:58:56.138Z,60.44
2023-04-21T23:01:23.362Z,60.07
2023-04-21T23:03:50.488Z,60.33
2023-04-21T23:06:17.425Z,60.16
2023-04-21T23:08:45.546Z,60.58
2023-04-21T23:11:12.787Z,60.49
2023-04-21T23:13:40.254Z,60.33
2023-04-21T23:16:07.712Z,60.33
2023-04-21T23:18:34.691Z,59.96
2023-04-21T23:21:01.704Z,60.19
2023-04-21T23:23:28.757Z,60.50
2023-04-21T23:25:55.758Z,60.64
2023-04-21T23:28:24.137Z,60.35
2023-04-21T23:30:51.349Z,60.62
2023-04-21T23:33:18.468Z,60.48
2023-04-21T23:35:48.665Z,60.23
2023-04-21T23:38:15.748Z,59.99
2023-04-21T23:40:42.606Z,60.18
2023-04-21T23:43:09.702Z,60.70
2023-04-21T23:45:36.874Z,59.81
2023-04-21T23:48:03.864Z,60.50
2023-04-21T23:50:30.839Z,59.90
2023-04-21T23:52:57.875Z,60.11
2023-04-21T23:55:25.045Z,60.32
2023-04-21T23:57:51.923Z,60.14
